Time;durP1;ratioP1;P1;durP2;ratioP2;P2;SDS_P1;SDS_P2;PMS_P1;PMS_P2;Temp;Humidity;BMP_temperature;BMP_pressure;BME280_temperature;BME280_humidity;BME280_pressure;Samples;Min_cycle;Max_cycle;Signal;HPM_P1;HPM_P2
2022/10/14 00:02:12;;;;;;;29.67;18.50;;;13.60;99.90;;;;;;5011484;28;20409;-72
2022/10/14 00:04:38;;;;;;;24.80;17.90;;;13.60;99.90;;;;;;5012056;28;20396;-73
2022/10/14 00:07:03;;;;;;;31.10;19.55;;;13.60;99.90;;;;;;5011602;28;20376;-73
2022/10/14 00:09:29;;;;;;;37.90;19.17;;;13.60;99.90;;;;;;5011945;28;20389;-73
2022/10/14 00:11:55;;;;;;;36.90;20.23;;;13.60;99.90;;;;;;5011095;28;20399;-73
2022/10/14 00:14:21;;;;;;;35.53;20.43;;;13.60;99.90;;;;;;5011437;28;20451;-72
2022/10/14 00:16:50;;;;;;;35.47;20.73;;;13.60;99.90;;;;;;5011483;28;20396;-72
2022/10/14 00:19:17;;;;;;;32.67;21.20;;;13.60;99.90;;;;;;5011381;28;20535;-72
2022/10/14 00:21:44;;;;;;;34.30;20.60;;;13.60;99.90;;;;;;5011367;28;20972;-72
2022/10/14 00:24:14;;;;;;;32.73;20.53;;;13.60;99.90;;;;;;5010215;28;20445;-71
2022/10/14 00:26:41;;;;;;;30.93;20.00;;;13.70;99.90;;;;;;5011331;28;20851;-72
2022/10/14 00:29:12;;;;;;;31.88;21.77;;;13.60;99.90;;;;;;5011305;28;20479;-73
2022/10/14 00:31:38;;;;;;;33.53;22.10;;;13.60;99.90;;;;;;5011317;28;20404;-72
2022/10/14 00:34:03;;;;;;;40.73;23.90;;;13.60;99.90;;;;;;5011609;28;20392;-72
2022/10/14 00:36:29;;;;;;;35.70;23.90;;;13.60;99.90;;;;;;5012409;28;20381;-74
2022/10/14 00:38:55;;;;;;;36.58;24.70;;;13.60;99.90;;;;;;5012458;28;20741;-71
2022/10/14 00:41:25;;;;;;;41.25;24.80;;;13.60;99.90;;;;;;5012971;28;20515;-72
2022/10/14 00:44:05;;;;;;;42.53;25.98;;;13.50;99.90;;;;;;5014128;28;20455;-72
2022/10/14 00:46:42;;;;;;;43.88;26.98;;;13.50;99.90;;;;;;5014421;28;20427;-72
2022/10/14 00:49:20;;;;;;;37.38;24.70;;;13.50;99.90;;;;;;5014470;28;20389;-72
2022/10/14 00:51:59;;;;;;;43.80;26.37;;;13.50;99.90;;;;;;5014016;28;20385;-73
2022/10/14 00:54:30;;;;;;;39.17;24.90;;;13.50;99.90;;;;;;5014574;28;20417;-73
2022/10/14 00:56:55;;;;;;;39.03;27.00;;;13.50;99.90;;;;;;5015553;28;20459;-73
2022/10/14 00:59:21;;;;;;;48.90;26.77;;;13.50;99.90;;;;;;5015782;28;20479;-73
2022/10/14 01:01:46;;;;;;;35.17;25.93;;;13.50;99.90;;;;;;5015495;28;20405;-74
2022/10/14 01:04:12;;;;;;;37.70;26.20;;;13.60;99.90;;;;;;5015153;28;20387;-73
2022/10/14 01:07:19;;;;;;;39.87;27.17;;;13.60;99.90;;;;;;5015492;28;20384;-73
2022/10/14 01:10:22;;;;;;;40.55;27.30;;;13.50;99.90;;;;;;5014675;28;20385;-73
2022/10/14 01:13:00;;;;;;;44.13;27.70;;;13.50;99.90;;;;;;5013484;28;20397;-73
2022/10/14 01:15:41;;;;;;;43.95;27.90;;;13.50;99.90;;;;;;5013622;28;20455;-73
2022/10/14 01:18:40;;;;;;;43.40;28.60;;;13.50;99.90;;;;;;5013542;28;20431;-73
2022/10/14 01:21:08;;;;;;;43.92;29.88;;;13.60;99.90;;;;;;5013228;28;20424;-73
2022/10/14 01:23:43;;;;;;;43.03;28.83;;;13.60;99.90;;;;;;5013730;28;20531;-73
2022/10/14 01:26:33;;;;;;;41.58;27.40;;;13.60;99.90;;;;;;5012113;28;20948;-73
2022/10/14 01:29:19;;;;;;;42.60;28.30;;;13.60;99.90;;;;;;5013540;28;20723;-73
2022/10/14 01:31:53;;;;;;;38.90;26.95;;;13.70;99.90;;;;;;5013714;28;20380;-73
2022/10/14 01:34:26;;;;;;;38.72;26.73;;;13.60;99.90;;;;;;5012564;28;20792;-73
2022/10/14 01:37:02;;;;;;;34.50;26.10;;;13.60;99.90;;;;;;5013413;28;20862;-73
2022/10/14 01:39:40;;;;;;;42.67;27.63;;;13.70;99.90;;;;;;5013743;28;20424;-72
2022/10/14 01:42:15;;;;;;;38.60;27.40;;;13.70;99.90;;;;;;5013108;28;20404;-72
2022/10/14 01:44:46;;;;;;;44.22;27.77;;;13.60;99.90;;;;;;5013004;28;20392;-73
2022/10/14 01:47:17;;;;;;;46.60;30.15;;;13.60;99.90;;;;;;5013055;28;20472;-73
2022/10/14 01:49:57;;;;;;;39.95;29.92;;;13.60;99.90;;;;;;5013134;28;20870;-73
2022/10/14 01:52:27;;;;;;;45.55;30.55;;;13.60;99.90;;;;;;5012936;28;20393;-73
2022/10/14 01:54:58;;;;;;;45.67;30.13;;;13.60;99.90;;;;;;5012537;28;20405;-72
2022/10/14 01:57:28;;;;;;;45.70;30.63;;;13.70;99.90;;;;;;5012821;28;20512;-72
2022/10/14 01:59:54;;;;;;;41.08;29.42;;;13.60;99.90;;;;;;5012716;28;20393;-73
2022/10/14 02:02:21;;;;;;;46.80;30.38;;;13.60;99.90;;;;;;5012304;28;20404;-73
2022/10/14 02:04:46;;;;;;;42.22;30.38;;;13.60;99.90;;;;;;5012483;28;20431;-73
2022/10/14 02:07:50;;;;;;;42.05;29.90;;;13.60;99.90;;;;;;5012886;28;20471;-73
2022/10/14 02:10:49;;;;;;;37.95;28.45;;;13.60;99.90;;;;;;5010499;28;20990;-73
2022/10/14 02:13:29;;;;;;;45.33;30.95;;;13.60;99.90;;;;;;5013017;28;20388;-73
2022/10/14 02:16:22;;;;;;;40.50;29.70;;;13.60;99.90;;;;;;5013462;28;20420;-73
2022/10/14 02:18:58;;;;;;;43.37;31.10;;;13.60;99.90;;;;;;5012694;28;20381;-73
2022/10/14 02:21:30;;;;;;;47.58;32.13;;;13.50;99.90;;;;;;5012643;28;20459;-72
2022/10/14 02:24:08;;;;;;;47.53;31.57;;;13.60;99.90;;;;;;5013019;28;20385;-73
2022/10/14 02:26:35;;;;;;;52.65;32.30;;;13.50;99.90;;;;;;5012556;28;20439;-73
2022/10/14 02:29:03;;;;;;;46.70;31.65;;;13.60;99.90;;;;;;5012584;28;20392;-72
2022/10/14 02:31:31;;;;;;;46.17;32.10;;;13.50;99.90;;;;;;5012821;28;20749;-72
2022/10/14 02:33:59;;;;;;;49.90;32.40;;;13.50;99.90;;;;;;5012872;28;20404;-72
2022/10/14 02:36:26;;;;;;;49.75;34.45;;;13.50;99.90;;;;;;5012288;28;20385;-74
2022/10/14 02:38:58;;;;;;;48.58;32.70;;;13.50;99.90;;;;;;5011861;28;20385;-72
2022/10/14 02:41:27;;;;;;;50.40;33.90;;;13.50;99.90;;;;;;5011668;28;20470;-72
2022/10/14 02:43:53;;;;;;;49.50;33.40;;;13.40;99.90;;;;;;5011891;28;20381;-72
2022/10/14 02:46:20;;;;;;;51.80;32.33;;;13.50;99.90;;;;;;5012280;28;20385;-73
2022/10/14 02:48:46;;;;;;;52.75;34.85;;;13.50;99.90;;;;;;5012025;28;20438;-72
2022/10/14 02:51:12;;;;;;;49.83;34.63;;;13.50;99.90;;;;;;5011653;28;20404;-73
2022/10/14 02:53:37;;;;;;;49.22;33.45;;;13.50;99.90;;;;;;5011705;28;20415;-72
2022/10/14 02:56:03;;;;;;;50.22;34.03;;;13.60;99.90;;;;;;5011282;28;20400;-72
2022/10/14 02:58:28;;;;;;;51.07;33.77;;;13.60;99.90;;;;;;5011724;28;20428;-72
2022/10/14 03:00:54;;;;;;;53.37;35.10;;;13.50;99.90;;;;;;5011609;28;20924;-72
2022/10/14 03:03:20;;;;;;;58.03;36.00;;;13.50;99.90;;;;;;5011643;28;20962;-72
2022/10/14 03:05:46;;;;;;;57.42;35.55;;;13.50;99.90;;;;;;5011665;28;20801;-72
2022/10/14 03:08:11;;;;;;;49.63;32.20;;;13.50;99.90;;;;;;5011745;28;20431;-72
2022/10/14 03:10:37;;;;;;;53.80;32.13;;;13.60;99.90;;;;;;5012357;28;20419;-72
2022/10/14 03:13:02;;;;;;;54.23;33.70;;;13.60;99.90;;;;;;5016339;28;20892;-73
2022/10/14 03:15:28;;;;;;;55.28;33.40;;;13.50;99.90;;;;;;5013298;28;20377;-72
2022/10/14 03:17:54;;;;;;;52.88;33.58;;;13.50;99.90;;;;;;5024147;28;20427;-72
2022/10/14 03:20:19;;;;;;;49.80;33.13;;;13.50;99.90;;;;;;5032886;28;20419;-72
2022/10/14 03:22:45;;;;;;;54.63;34.10;;;13.50;99.90;;;;;;5014629;28;20499;-73
2022/10/14 03:25:10;;;;;;;53.60;33.70;;;13.40;99.90;;;;;;5027304;28;20804;-72
2022/10/14 03:27:36;;;;;;;48.90;31.93;;;13.40;99.90;;;;;;5011466;28;20459;-73
2022/10/14 03:30:03;;;;;;;51.35;30.98;;;13.40;99.90;;;;;;5011377;28;20385;-72
2022/10/14 03:32:28;;;;;;;47.85;32.03;;;13.40;99.90;;;;;;5012037;28;20885;-73
2022/10/14 03:34:54;;;;;;;45.45;30.17;;;13.50;99.90;;;;;;5011393;28;20447;-73
2022/10/14 03:37:20;;;;;;;47.43;29.67;;;13.50;99.90;;;;;;5011260;28;20385;-73
2022/10/14 03:39:45;;;;;;;47.70;29.83;;;13.60;99.90;;;;;;5011582;28;20384;-73
2022/10/14 03:42:11;;;;;;;46.37;30.10;;;13.50;99.90;;;;;;5011182;28;20783;-73
2022/10/14 03:44:36;;;;;;;48.00;29.87;;;13.50;99.90;;;;;;5011589;28;20392;-72
2022/10/14 03:47:02;;;;;;;47.75;30.55;;;13.50;99.90;;;;;;5009872;28;20434;-72
2022/10/14 03:49:27;;;;;;;48.40;30.45;;;13.50;99.90;;;;;;5011058;28;20447;-73
2022/10/14 03:51:53;;;;;;;44.55;30.30;;;13.40;99.90;;;;;;5010934;28;20459;-73
2022/10/14 03:56:46;;;;;;;49.13;27.93;;;13.40;99.90;;;;;;5033431;28;20479;-75
2022/10/14 03:59:15;;;;;;;44.27;28.10;;;13.60;99.90;;;;;;5032337;28;20379;-74
2022/10/14 04:01:40;;;;;;;42.50;30.10;;;13.50;99.90;;;;;;5030840;28;20456;-75
2022/10/14 04:04:06;;;;;;;43.27;28.90;;;13.50;99.90;;;;;;5030907;28;20387;-74
2022/10/14 04:06:31;;;;;;;42.35;28.73;;;13.40;99.90;;;;;;5031126;28;20390;-75
2022/10/14 04:08:57;;;;;;;42.03;29.63;;;13.40;99.90;;;;;;5029950;28;20724;-75
2022/10/14 04:11:23;;;;;;;46.20;29.67;;;13.40;99.90;;;;;;5030958;28;20398;-75
2022/10/14 04:13:48;;;;;;;41.87;27.60;;;13.40;99.90;;;;;;5035122;28;20423;-74
2022/10/14 04:16:14;;;;;;;36.75;26.40;;;13.50;99.90;;;;;;5038107;28;20391;-75
2022/10/14 04:18:40;;;;;;;41.17;28.13;;;13.50;99.90;;;;;;5044623;28;20427;-75
2022/10/14 04:21:09;;;;;;;40.53;27.87;;;13.50;99.90;;;;;;5047220;28;20422;-75
2022/10/14 04:23:35;;;;;;;41.22;26.95;;;13.50;99.90;;;;;;5047930;28;20394;-75
2022/10/14 04:26:05;;;;;;;42.40;27.60;;;13.50;99.90;;;;;;5045019;28;20468;-75
2022/10/14 04:28:31;;;;;;;44.28;28.70;;;13.50;99.90;;;;;;5044401;28;21285;-74
2022/10/14 04:30:57;;;;;;;44.60;28.15;;;13.50;99.90;;;;;;5047197;28;20383;-75
2022/10/14 04:33:25;;;;;;;39.27;27.37;;;13.40;99.90;;;;;;5047588;28;20388;-75
2022/10/14 04:35:59;;;;;;;34.15;25.15;;;13.50;99.90;;;;;;5043649;28;20856;-74
2022/10/14 04:38:25;;;;;;;38.22;26.15;;;13.50;99.90;;;;;;5041683;28;20417;-75
2022/10/14 04:40:51;;;;;;;40.58;27.58;;;13.50;99.90;;;;;;5041881;28;20411;-73
2022/10/14 04:43:16;;;;;;;35.77;24.50;;;13.50;99.90;;;;;;5052169;28;20407;-74
2022/10/14 04:45:42;;;;;;;32.88;24.00;;;13.60;99.90;;;;;;5042486;28;20398;-75
2022/10/14 04:48:07;;;;;;;38.97;25.60;;;13.60;99.90;;;;;;5033633;28;20403;-75
2022/10/14 04:50:33;;;;;;;36.57;23.90;;;13.60;99.90;;;;;;5036427;28;20437;-75
2022/10/14 04:52:58;;;;;;;34.63;24.43;;;13.60;99.90;;;;;;5035041;28;20387;-75
2022/10/14 04:55:24;;;;;;;37.93;24.50;;;13.50;99.90;;;;;;5038042;28;20395;-75
2022/10/14 04:57:50;;;;;;;37.33;25.33;;;13.60;99.90;;;;;;5039186;28;20427;-75
2022/10/14 05:00:15;;;;;;;37.15;25.92;;;13.60;99.90;;;;;;5039455;28;20427;-75
2022/10/14 05:02:41;;;;;;;39.35;25.40;;;13.60;99.90;;;;;;5038620;28;20489;-75
2022/10/14 05:05:07;;;;;;;37.47;25.30;;;13.60;99.90;;;;;;5040390;28;20466;-76
2022/10/14 05:07:33;;;;;;;35.58;24.60;;;13.60;99.90;;;;;;5037879;28;20399;-76
2022/10/14 05:10:00;;;;;;;37.47;24.20;;;13.60;99.90;;;;;;5038391;28;20478;-75
2022/10/14 05:12:26;;;;;;;35.92;23.02;;;13.70;99.90;;;;;;5039672;28;20395;-76
2022/10/14 05:14:52;;;;;;;33.53;23.13;;;13.60;99.90;;;;;;5039625;28;20386;-75
2022/10/14 05:17:17;;;;;;;37.23;23.53;;;13.60;99.90;;;;;;5037808;28;20399;-75
2022/10/14 05:19:43;;;;;;;34.87;23.07;;;13.50;99.90;;;;;;5037223;28;20453;-75
2022/10/14 05:22:08;;;;;;;30.73;22.40;;;13.50;99.90;;;;;;5034371;28;20410;-76
2022/10/14 05:24:34;;;;;;;34.30;22.83;;;13.60;99.90;;;;;;5040319;28;20399;-75
2022/10/14 05:27:00;;;;;;;29.73;22.00;;;13.50;99.90;;;;;;5047065;28;20475;-75
2022/10/14 05:29:25;;;;;;;32.40;22.77;;;13.50;99.90;;;;;;5046631;28;20393;-74
2022/10/14 05:31:51;;;;;;;27.50;21.77;;;13.50;99.90;;;;;;5043196;28;20458;-74
2022/10/14 05:34:16;;;;;;;31.37;22.30;;;13.50;99.90;;;;;;5032728;28;20482;-75
2022/10/14 05:36:42;;;;;;;33.05;22.30;;;13.50;99.90;;;;;;5033467;28;20402;-74
2022/10/14 05:39:10;;;;;;;33.85;21.63;;;13.50;99.90;;;;;;5033137;28;20615;-76
2022/10/14 05:41:36;;;;;;;32.88;21.13;;;13.50;99.90;;;;;;5032910;28;20410;-75
2022/10/14 05:44:02;;;;;;;31.50;21.73;;;13.50;99.90;;;;;;5033367;28;20446;-75
2022/10/14 05:46:28;;;;;;;29.37;21.00;;;13.50;99.90;;;;;;5033022;28;20391;-75
2022/10/14 05:48:54;;;;;;;31.50;20.97;;;13.50;99.90;;;;;;5032510;28;20398;-75
2022/10/14 05:51:21;;;;;;;31.35;21.08;;;13.50;99.90;;;;;;5032608;28;20433;-74
2022/10/14 05:53:47;;;;;;;26.92;20.33;;;13.50;99.90;;;;;;5033075;28;20802;-74
2022/10/14 05:56:14;;;;;;;25.42;19.35;;;13.50;99.90;;;;;;5031904;28;20519;-75
2022/10/14 05:58:41;;;;;;;27.90;19.87;;;13.50;99.90;;;;;;5011099;28;20507;-74
2022/10/14 06:01:08;;;;;;;26.07;19.13;;;13.60;99.90;;;;;;5010106;28;20420;-74
2022/10/14 06:03:34;;;;;;;28.30;19.70;;;13.60;99.90;;;;;;5011163;28;20896;-75
2022/10/14 06:06:00;;;;;;;27.15;18.70;;;13.60;99.90;;;;;;5022302;28;20400;-75
2022/10/14 06:08:26;;;;;;;23.90;18.83;;;13.60;99.90;;;;;;5026484;28;20389;-75
2022/10/14 06:10:52;;;;;;;27.58;19.27;;;13.70;99.90;;;;;;5043148;28;20763;-76
2022/10/14 06:13:18;;;;;;;25.97;17.70;;;13.70;99.90;;;;;;5030586;28;20478;-74
2022/10/14 06:15:44;;;;;;;25.65;18.58;;;13.70;99.90;;;;;;5028347;28;20411;-76
2022/10/14 06:18:10;;;;;;;23.38;17.00;;;13.80;99.90;;;;;;5030951;28;20426;-75
2022/10/14 06:20:36;;;;;;;24.45;18.75;;;13.80;99.90;;;;;;5030346;28;20390;-75
2022/10/14 06:23:02;;;;;;;24.33;15.63;;;13.90;99.90;;;;;;5029793;28;20395;-75
2022/10/14 06:25:28;;;;;;;22.35;17.58;;;13.90;99.90;;;;;;5031205;28;20387;-74
2022/10/14 06:27:54;;;;;;;24.33;16.70;;;13.90;99.90;;;;;;5029754;28;20863;-74
2022/10/14 06:30:21;;;;;;;24.08;16.00;;;13.90;99.90;;;;;;5029690;28;20500;-74
2022/10/14 06:32:46;;;;;;;21.83;15.77;;;13.90;99.90;;;;;;5028919;28;20383;-74
2022/10/14 06:35:12;;;;;;;21.10;15.53;;;13.90;99.90;;;;;;5029523;28;20936;-75
2022/10/14 06:37:38;;;;;;;24.40;17.83;;;13.90;99.90;;;;;;5030076;28;20375;-75
2022/10/14 06:40:04;;;;;;;24.00;16.50;;;14.00;99.90;;;;;;5029551;28;20404;-76
2022/10/14 06:42:29;;;;;;;22.63;16.40;;;14.00;99.90;;;;;;5029735;28;21054;-76
2022/10/14 06:44:55;;;;;;;24.85;17.38;;;14.00;99.90;;;;;;5028966;28;20411;-75
2022/10/14 06:47:21;;;;;;;28.15;16.17;;;14.20;99.90;;;;;;5029765;28;20430;-75
2022/10/14 06:49:46;;;;;;;23.17;16.97;;;14.20;99.90;;;;;;5028759;28;20772;-75
2022/10/14 06:52:12;;;;;;;25.13;18.50;;;14.20;99.90;;;;;;5032267;28;20402;-75
2022/10/14 06:54:37;;;;;;;23.42;15.95;;;14.20;99.90;;;;;;5029172;28;20862;-73
2022/10/14 06:57:03;;;;;;;21.75;15.88;;;14.20;99.90;;;;;;5029128;28;20391;-72
2022/10/14 06:59:29;;;;;;;26.73;16.00;;;14.30;99.90;;;;;;5029199;28;20771;-73
2022/10/14 07:01:54;;;;;;;25.27;16.30;;;14.20;99.90;;;;;;5028367;28;20407;-73
2022/10/14 07:04:20;;;;;;;27.58;16.98;;;14.30;99.90;;;;;;5028994;28;20457;-73
2022/10/14 07:06:46;;;;;;;22.20;16.23;;;14.30;99.90;;;;;;5028817;28;20398;-74
2022/10/14 07:09:12;;;;;;;24.67;16.50;;;14.20;99.90;;;;;;5028605;28;20506;-74
2022/10/14 07:11:37;;;;;;;21.42;15.48;;;14.30;99.90;;;;;;5028253;28;21064;-74
2022/10/14 07:14:03;;;;;;;23.13;15.33;;;14.20;99.90;;;;;;5029260;28;20437;-74
2022/10/14 07:16:29;;;;;;;20.50;15.73;;;14.20;99.90;;;;;;5027686;28;20471;-73
2022/10/14 07:18:55;;;;;;;20.57;15.30;;;14.20;99.90;;;;;;5029345;28;20697;-74
2022/10/14 07:21:20;;;;;;;19.90;15.10;;;14.30;99.90;;;;;;5027758;28;20418;-73
2022/10/14 07:23:46;;;;;;;22.45;16.77;;;14.40;99.90;;;;;;5028380;28;20780;-74
2022/10/14 07:26:12;;;;;;;21.40;15.38;;;14.50;99.90;;;;;;5028206;28;20398;-74
2022/10/14 07:28:37;;;;;;;19.88;14.05;;;14.40;99.90;;;;;;5028719;28;20462;-73
2022/10/14 07:31:09;;;;;;;20.08;15.20;;;14.40;99.90;;;;;;5027673;28;20895;-73
2022/10/14 07:33:36;;;;;;;20.48;14.90;;;14.50;99.90;;;;;;5027657;28;20871;-73
2022/10/14 07:36:05;;;;;;;18.95;14.00;;;14.50;99.90;;;;;;5028691;28;20413;-74
2022/10/14 07:38:31;;;;;;;18.10;14.43;;;14.60;99.90;;;;;;5039986;28;20407;-74
2022/10/14 07:41:03;;;;;;;19.02;13.73;;;14.50;99.90;;;;;;5042661;28;20513;-73
2022/10/14 07:43:30;;;;;;;20.43;14.27;;;14.60;99.90;;;;;;5039482;28;20392;-74
2022/10/14 07:46:01;;;;;;;21.20;15.00;;;14.60;99.90;;;;;;5028787;28;20390;-73
2022/10/14 07:48:28;;;;;;;18.00;13.65;;;14.70;99.90;;;;;;5029122;28;20387;-72
2022/10/14 07:50:54;;;;;;;15.07;12.88;;;14.70;99.90;;;;;;5029781;28;20386;-73
2022/10/14 07:53:21;;;;;;;21.10;15.07;;;14.70;99.90;;;;;;5027055;28;20414;-75
2022/10/14 07:55:51;;;;;;;16.42;13.40;;;14.80;99.90;;;;;;5032914;28;20399;-76
2022/10/14 07:58:22;;;;;;;17.02;12.70;;;14.70;99.90;;;;;;5033364;28;20472;-75
2022/10/14 08:00:49;;;;;;;19.75;12.27;;;14.80;99.90;;;;;;5035381;28;20379;-75
2022/10/14 08:03:15;;;;;;;17.98;12.40;;;14.80;99.90;;;;;;5035115;28;20383;-75
2022/10/14 08:05:41;;;;;;;19.50;12.90;;;14.80;99.90;;;;;;5037511;28;20395;-73
2022/10/14 08:08:07;;;;;;;14.00;11.90;;;14.90;99.90;;;;;;5052448;28;20866;-72
2022/10/14 08:10:33;;;;;;;17.35;13.50;;;14.80;99.90;;;;;;5045113;28;20411;-73
2022/10/14 08:12:58;;;;;;;16.65;12.45;;;14.80;99.90;;;;;;5016500;28;20952;-72
2022/10/14 08:15:27;;;;;;;16.20;13.00;;;14.80;99.90;;;;;;5015167;28;20384;-71
2022/10/14 08:17:53;;;;;;;21.03;13.90;;;14.70;99.90;;;;;;5017283;28;20765;-70
2022/10/14 08:20:18;;;;;;;18.50;13.73;;;14.70;99.90;;;;;;5034648;28;20391;-71
2022/10/14 08:22:44;;;;;;;17.80;13.50;;;14.80;99.90;;;;;;5034719;28;20403;-71
2022/10/14 08:25:10;;;;;;;19.40;13.47;;;14.80;99.90;;;;;;5033805;28;20391;-72
2022/10/14 08:27:35;;;;;;;17.57;12.20;;;14.90;99.90;;;;;;5034572;28;20874;-72
2022/10/14 08:30:01;;;;;;;15.73;11.93;;;14.90;99.90;;;;;;5033685;28;20402;-72
2022/10/14 08:32:27;;;;;;;17.38;12.40;;;15.00;99.90;;;;;;5034383;28;20804;-71
2022/10/14 08:34:54;;;;;;;14.60;10.57;;;15.10;99.90;;;;;;5037907;28;20407;-72
2022/10/14 08:37:20;;;;;;;11.50;10.30;;;15.20;99.90;;;;;;5026243;28;20399;-71
2022/10/14 08:39:46;;;;;;;15.73;10.70;;;15.30;99.90;;;;;;5033854;28;20394;-72
2022/10/14 08:42:28;;;;;;;11.50;9.90;;;15.40;99.90;;;;;;5034112;28;20402;-72
2022/10/14 08:45:00;;;;;;;15.15;9.95;;;15.40;99.90;;;;;;5034101;28;20470;-72
2022/10/14 08:47:35;;;;;;;9.98;7.85;;;15.60;99.90;;;;;;5033837;28;20383;-72
2022/10/14 08:50:10;;;;;;;10.70;7.95;;;15.50;99.90;;;;;;5033722;28;20371;-71
2022/10/14 08:52:52;;;;;;;9.70;8.00;;;15.60;99.90;;;;;;5033505;28;20939;-71
2022/10/14 08:55:26;;;;;;;12.07;7.60;;;15.70;99.90;;;;;;5033651;28;20544;-73
2022/10/14 08:57:58;;;;;;;11.50;9.02;;;15.70;99.90;;;;;;5033755;28;20478;-72
2022/10/14 09:00:24;;;;;;;10.65;7.55;;;15.80;99.90;;;;;;5033811;28;20874;-71
2022/10/14 09:02:51;;;;;;;10.38;8.23;;;15.80;99.90;;;;;;5033182;28;20490;-72
2022/10/14 09:05:20;;;;;;;13.35;8.85;;;15.90;98.50;;;;;;5033461;28;20383;-73
2022/10/14 09:07:48;;;;;;;11.07;7.97;;;15.90;99.50;;;;;;5033228;28;20382;-72
2022/10/14 09:10:38;;;;;;;10.02;8.30;;;15.80;99.90;;;;;;5033583;28;20383;-71
2022/10/14 09:13:38;;;;;;;11.50;8.50;;;15.80;99.90;;;;;;5036891;28;20378;-72
2022/10/14 09:16:23;;;;;;;8.88;7.40;;;16.10;95.70;;;;;;5042248;28;20414;-71
2022/10/14 09:19:01;;;;;;;10.90;6.95;;;16.10;96.30;;;;;;5041260;28;20470;-73
2022/10/14 09:21:41;;;;;;;8.00;6.90;;;16.10;97.90;;;;;;5035978;28;20772;-72
2022/10/14 09:24:16;;;;;;;12.80;8.57;;;16.10;95.90;;;;;;5033449;28;20410;-72
2022/10/14 09:26:45;;;;;;;8.00;6.80;;;16.30;94.60;;;;;;5033342;28;20408;-70
2022/10/14 09:29:22;;;;;;;9.60;6.43;;;16.20;96.20;;;;;;5033321;28;20391;-73
2022/10/14 09:31:48;;;;;;;9.07;6.40;;;16.30;93.70;;;;;;5032951;28;20817;-71
2022/10/14 09:34:29;;;;;;;7.57;6.65;;;16.30;94.50;;;;;;5033017;28;20469;-72
2022/10/14 09:36:59;;;;;;;9.75;6.50;;;16.40;93.70;;;;;;5032930;28;20387;-71
2022/10/14 09:39:25;;;;;;;9.40;7.20;;;16.50;92.50;;;;;;5031876;28;20475;-72
2022/10/14 09:41:53;;;;;;;8.80;7.40;;;16.50;91.10;;;;;;5034509;28;20510;-72
2022/10/14 09:44:21;;;;;;;8.13;7.30;;;16.60;89.60;;;;;;5034984;28;20380;-73
2022/10/14 09:46:51;;;;;;;8.80;6.70;;;16.80;88.40;;;;;;5034761;28;20876;-71
2022/10/14 09:49:23;;;;;;;10.98;7.35;;;16.70;87.20;;;;;;5034270;28;20383;-70
2022/10/14 09:51:50;;;;;;;11.45;8.23;;;16.70;88.00;;;;;;5033608;28;20379;-72
2022/10/14 09:54:23;;;;;;;9.82;7.10;;;16.70;87.90;;;;;;5033190;28;20387;-73
2022/10/14 09:56:49;;;;;;;10.52;7.10;;;16.80;86.20;;;;;;5046198;22;20439;-72
2022/10/14 09:59:20;;;;;;;6.75;6.05;;;16.90;87.10;;;;;;5032606;28;20371;-71
2022/10/14 10:01:59;;;;;;;9.40;6.85;;;16.90;84.60;;;;;;5033210;28;20461;-72
2022/10/14 10:04:30;;;;;;;11.57;7.93;;;17.00;82.50;;;;;;5031420;28;20402;-72
2022/10/14 10:06:58;;;;;;;10.48;6.60;;;16.90;84.30;;;;;;5032623;28;20387;-73
2022/10/14 10:09:24;;;;;;;9.07;6.70;;;16.80;85.50;;;;;;5032923;28;20954;-72
2022/10/14 10:11:50;;;;;;;8.57;7.68;;;16.70;87.50;;;;;;5032347;28;20477;-72
2022/10/14 10:14:28;;;;;;;9.52;7.03;;;16.60;88.90;;;;;;5031377;28;21010;-72
2022/10/14 10:17:11;;;;;;;9.70;7.72;;;16.50;90.70;;;;;;5032118;28;20391;-71
2022/10/14 10:19:51;;;;;;;9.38;7.30;;;16.50;92.00;;;;;;5032117;28;20387;-71
2022/10/14 10:22:20;;;;;;;8.23;6.68;;;16.60;90.80;;;;;;5031835;28;20403;-71
2022/10/14 10:24:47;;;;;;;11.80;7.20;;;16.60;90.70;;;;;;5031972;28;20395;-72
2022/10/14 10:27:24;;;;;;;10.50;7.50;;;16.60;88.80;;;;;;5031671;28;20921;-72
2022/10/14 10:29:50;;;;;;;10.85;7.47;;;16.80;86.20;;;;;;5031636;28;20958;-71
2022/10/14 10:32:29;;;;;;;11.95;7.93;;;16.80;86.80;;;;;;5031235;28;20493;-72
2022/10/14 10:35:21;;;;;;;8.07;7.18;;;17.00;86.00;;;;;;5031635;28;20767;-71
2022/10/14 10:38:15;;;;;;;12.23;7.30;;;17.30;82.40;;;;;;5013315;28;20396;-72
2022/10/14 10:40:48;;;;;;;7.45;6.10;;;17.60;76.40;;;;;;5011737;28;20384;-72
2022/10/14 10:43:35;;;;;;;9.05;7.25;;;17.70;74.80;;;;;;5012580;28;20459;-72
2022/10/14 10:46:04;;;;;;;8.45;6.20;;;17.70;73.80;;;;;;5011819;28;20403;-72
2022/10/14 10:48:40;;;;;;;9.80;7.43;;;17.70;72.50;;;;;;5012179;28;20381;-72
2022/10/14 10:51:16;;;;;;;8.30;7.40;;;17.70;73.70;;;;;;5024949;28;20786;-73
2022/10/14 10:54:01;;;;;;;11.13;7.55;;;17.60;76.10;;;;;;5030481;28;20489;-72
2022/10/14 10:56:33;;;;;;;8.15;7.22;;;17.60;75.90;;;;;;5029710;28;20457;-71
2022/10/14 10:59:08;;;;;;;10.38;7.80;;;17.80;74.90;;;;;;5031179;28;20477;-72
2022/10/14 11:02:02;;;;;;;14.00;8.95;;;17.90;72.20;;;;;;5031408;28;20764;-71
2022/10/14 11:04:32;;;;;;;19.67;12.50;;;17.70;73.20;;;;;;5025286;28;20389;-70
2022/10/14 11:13:24;;;;;;;15.60;9.73;;;17.30;84.00;;;;;;5032304;28;20398;-72
2022/10/14 11:16:09;;;;;;;16.27;9.73;;;17.20;85.30;;;;;;5029484;28;20818;-72
2022/10/14 11:18:53;;;;;;;14.00;10.32;;;17.20;86.50;;;;;;5028572;28;20466;-71
2022/10/14 11:21:44;;;;;;;17.30;11.10;;;17.10;87.60;;;;;;5031052;28;20429;-72
2022/10/14 11:24:30;;;;;;;15.63;11.20;;;16.90;89.60;;;;;;5013104;28;20384;-73
2022/10/14 11:27:12;;;;;;;18.90;12.03;;;16.80;94.40;;;;;;5017597;28;20390;-72
2022/10/14 11:30:05;;;;;;;18.83;13.32;;;16.60;96.20;;;;;;5031090;28;20386;-72
2022/10/14 11:32:45;;;;;;;25.13;13.68;;;16.60;98.40;;;;;;5031383;28;20383;-72
2022/10/14 11:35:32;;;;;;;21.05;13.07;;;16.50;99.00;;;;;;5031157;28;20383;-71
2022/10/14 11:38:14;;;;;;;18.60;12.90;;;16.50;99.90;;;;;;5031443;28;20959;-71
2022/10/14 11:41:01;;;;;;;18.60;12.45;;;16.50;99.90;;;;;;5031443;28;20383;-72
2022/10/14 11:43:46;;;;;;;20.73;13.10;;;16.60;99.90;;;;;;5030316;28;20721;-71
2022/10/14 11:46:18;;;;;;;17.95;13.40;;;16.70;99.90;;;;;;5031192;28;20386;-72
2022/10/14 11:48:51;;;;;;;19.70;13.70;;;16.70;99.90;;;;;;5032039;28;20957;-72
2022/10/14 11:51:35;;;;;;;25.20;15.40;;;16.70;99.90;;;;;;5042491;28;20406;-71
2022/10/14 11:54:23;;;;;;;23.13;13.95;;;16.70;99.90;;;;;;5044321;28;20472;-71
2022/10/14 11:57:15;;;;;;;25.30;14.43;;;16.60;99.90;;;;;;5033547;28;20907;-73
2022/10/14 12:02:48;;;;;;;24.48;14.13;;;16.60;99.90;;;;;;5030968;28;20398;-73
2022/10/14 12:05:22;;;;;;;19.67;14.77;;;16.50;99.90;;;;;;5030602;28;20394;-72
2022/10/14 12:08:13;;;;;;;21.17;14.40;;;16.60;99.90;;;;;;5031107;28;20383;-72
2022/10/14 12:10:46;;;;;;;22.45;14.65;;;16.60;99.90;;;;;;5030702;28;20393;-71
2022/10/14 12:13:19;;;;;;;25.92;16.58;;;16.50;99.90;;;;;;5030953;28;20379;-73
2022/10/14 12:15:52;;;;;;;21.23;14.63;;;16.60;99.90;;;;;;5030030;28;20739;-71
2022/10/14 12:18:18;;;;;;;26.27;16.40;;;16.50;99.90;;;;;;5031578;28;20882;-72
2022/10/14 12:20:52;;;;;;;20.40;14.73;;;16.50;99.90;;;;;;5030785;28;20391;-72
2022/10/14 12:23:32;;;;;;;19.63;14.73;;;16.50;99.90;;;;;;5030667;28;20693;-72
2022/10/14 12:26:21;;;;;;;22.75;15.57;;;16.50;99.90;;;;;;5029330;28;20380;-72
2022/10/14 12:28:48;;;;;;;23.97;15.40;;;16.50;99.90;;;;;;5030503;28;20422;-73
2022/10/14 12:31:35;;;;;;;25.50;16.23;;;16.60;99.90;;;;;;5030189;28;20891;-71
2022/10/14 12:34:10;;;;;;;26.05;16.60;;;16.80;99.90;;;;;;5029476;28;20403;-73
2022/10/14 12:36:37;;;;;;;26.35;16.10;;;16.80;99.90;;;;;;5030450;28;20478;-71
2022/10/14 12:39:18;;;;;;;24.17;15.90;;;16.80;99.90;;;;;;5034339;28;20790;-72
2022/10/14 12:41:54;;;;;;;24.13;17.00;;;16.90;99.90;;;;;;5033720;28;20421;-72
2022/10/14 12:44:28;;;;;;;25.75;16.95;;;16.80;99.90;;;;;;5033962;28;20390;-72
2022/10/14 12:46:53;;;;;;;24.23;16.25;;;16.80;99.90;;;;;;5033837;28;20393;-72
2022/10/14 12:49:30;;;;;;;23.48;17.13;;;16.80;99.90;;;;;;5033778;28;20475;-72
2022/10/14 12:52:00;;;;;;;24.35;16.98;;;16.90;99.90;;;;;;5033841;28;20759;-72
2022/10/14 12:54:26;;;;;;;27.25;17.63;;;16.80;99.90;;;;;;5033783;28;20387;-72
2022/10/14 12:57:05;;;;;;;26.40;16.77;;;16.80;99.90;;;;;;5033802;28;20405;-71
2022/10/14 12:59:35;;;;;;;26.55;17.52;;;16.80;99.90;;;;;;5033807;28;20399;-72
2022/10/14 13:02:13;;;;;;;24.85;17.77;;;16.70;99.90;;;;;;5033433;28;20426;-72